Terminal Aerodrome Forecast
Issued by NWS

Home | Current Version | Previous Version | Text Only | Print | Product List | Glossary On
Versions: 1 2 3 4 5 6 7 8 9 10 11 12
000
FTUS46 KSEW 161100
TAFCLM
TAF
KCLM 161120Z 1612/1712 00000KT P6SM OVC090
      TEMPO 1613/1617 -RA BKN030 OVC060
     FM161700 07004KT P6SM -RA SCT015 OVC030
     FM170100 26006KT P6SM -RA OVC025=

USA.gov is the U.S. government's official web portal to all federal, state and local government web resources and services.